Flight Track Log - Related Links

Times and Time Zones

All times are in EDT time to prevent confusion due to time zone crossing. See the PDT4480 flight status page for this flight to view local times or setup timezone preferences in your user account.

Time Position Orientation Groundspeed Altitude Reporting Facility
EDT Latitude Longitude Course Direction KTS MPH feet Rate Location/Type
Wed 04:43:03 PM 40.7833 -73.0000 90° East 153 176 2,700  Level New York TRACON
Wed 04:44:03 PM 40.8000 -72.9333 72° East 185 213 3,500 1,045 Climbing New York TRACON
Wed 04:46:01 PM 40.8139 -72.8019 82° East 196 226 5,800 1,200 Climbing Boston Center
Wed 04:46:58 PM 40.7933 -72.7333 112° Southeast 190 219 7,000 1,169 Climbing Boston Center
Wed 04:47:00 PM 40.7368 -72.6438 114° Southeast  Level FlightAware Approximate
Wed 04:47:59 PM 40.7706 -72.6647 114° Southeast 190 219 8,100  Level Boston Center
Wed 04:49:00 PM 40.7353 -72.6236 139° Southeast 185 213 9,000 926 Climbing Boston Center
Wed 04:50:54 PM 40.6711 -72.7003 222° Southwest 136 157 10,800 942 Climbing New York Center
Wed 04:51:52 PM 40.6350 -72.7347 216° Southwest 152 175 11,700 655 Climbing New York Center
Wed 04:52:53 PM 40.6031 -72.7775 225° Southwest 162 186 12,100 148 Climbing New York Center
Wed 04:53:54 PM 40.5586 -72.8253 219° Southwest 194 223 12,000 -51 Descending New York Center
Wed 04:54:51 PM 40.5139 -72.8731 219° Southwest 211 243 12,000  Level New York Center
Wed 04:55:52 PM 40.4756 -72.9211 224° Southwest 211 243 12,000  Level New York Center
Wed 04:56:53 PM 40.4244 -72.9794 221° Southwest 211 243 12,000  Level New York Center
Wed 04:57:54 PM 40.3819 -73.0244 219° Southwest 211 243 12,000  Level New York Center
Wed 04:58:52 PM 40.3289 -73.0769 217° Southwest 211 243 12,000 -254 Level New York Center
Wed 04:59:52 PM 40.2864 -73.1219 219° Southwest 216 249 11,500 -700 Descending New York Center
Wed 05:00:52 PM 40.2372 -73.1800 222° Southwest 216 249 10,600 -744 Descending New York Center
Wed 05:01:53 PM 40.1986 -73.2275 223° Southwest 216 249 10,000 -298 Descending New York Center
Wed 05:02:53 PM 40.1517 -73.2803 221° Southwest 216 249 10,000  Level New York Center
Wed 05:03:53 PM 40.1111 -73.3222 218° Southwest 211 243 10,000  Level New York Center
Wed 05:04:54 PM 40.0600 -73.3744 218° Southwest 211 243 10,000  Level New York Center
Wed 05:05:52 PM 40.0214 -73.4192 222° Southwest 211 243 10,000  Level New York Center

Login

Don't have an account? Register now (free) for customized features, flight alerts, and more!